sensor_id;sensor_type;location;lat;lon;timestamp;temperature;humidity
42199;DHT22;27868;45.184;5.786;2022-09-19T00:02:43;16.10;65.10
42199;DHT22;27868;45.184;5.786;2022-09-19T00:05:28;16.10;65.10
42199;DHT22;27868;45.184;5.786;2022-09-19T00:08:13;16.10;65.30
42199;DHT22;27868;45.184;5.786;2022-09-19T00:11:02;16.10;65.20
42199;DHT22;27868;45.184;5.786;2022-09-19T00:13:49;16.10;65.30
42199;DHT22;27868;45.184;5.786;2022-09-19T00:16:36;16.00;65.40
42199;DHT22;27868;45.184;5.786;2022-09-19T00:19:23;16.00;65.40
42199;DHT22;27868;45.184;5.786;2022-09-19T00:22:08;16.00;65.40
42199;DHT22;27868;45.184;5.786;2022-09-19T00:24:53;16.00;65.50
42199;DHT22;27868;45.184;5.786;2022-09-19T00:27:38;16.00;65.60
42199;DHT22;27868;45.184;5.786;2022-09-19T00:30:23;15.90;65.50
42199;DHT22;27868;45.184;5.786;2022-09-19T00:33:07;15.90;65.50
42199;DHT22;27868;45.184;5.786;2022-09-19T00:35:53;15.90;65.60
42199;DHT22;27868;45.184;5.786;2022-09-19T00:38:39;15.90;65.60
42199;DHT22;27868;45.184;5.786;2022-09-19T00:41:24;15.80;65.80
42199;DHT22;27868;45.184;5.786;2022-09-19T00:47:13;15.80;65.80
42199;DHT22;27868;45.184;5.786;2022-09-19T00:50:02;15.70;65.80
42199;DHT22;27868;45.184;5.786;2022-09-19T00:53:00;15.70;66.00
42199;DHT22;27868;45.184;5.786;2022-09-19T00:55:49;15.70;66.00
42199;DHT22;27868;45.184;5.786;2022-09-19T00:58:39;15.70;66.00
42199;DHT22;27868;45.184;5.786;2022-09-19T01:01:26;15.60;66.10
42199;DHT22;27868;45.184;5.786;2022-09-19T01:04:15;15.60;66.20
42199;DHT22;27868;45.184;5.786;2022-09-19T01:07:39;15.50;66.20
42199;DHT22;27868;45.184;5.786;2022-09-19T01:10:47;15.60;66.30
42199;DHT22;27868;45.184;5.786;2022-09-19T01:13:57;15.50;66.30
42199;DHT22;27868;45.184;5.786;2022-09-19T01:16:51;15.50;66.50
42199;DHT22;27868;45.184;5.786;2022-09-19T01:25:58;15.40;66.80
42199;DHT22;27868;45.184;5.786;2022-09-19T01:28:55;15.30;66.50
42199;DHT22;27868;45.184;5.786;2022-09-19T01:31:46;15.30;66.90
42199;DHT22;27868;45.184;5.786;2022-09-19T01:34:39;15.30;66.90
42199;DHT22;27868;45.184;5.786;2022-09-19T01:37:37;15.30;67.00
42199;DHT22;27868;45.184;5.786;2022-09-19T01:40:23;15.20;67.10
42199;DHT22;27868;45.184;5.786;2022-09-19T01:43:13;15.20;67.10
42199;DHT22;27868;45.184;5.786;2022-09-19T01:46:05;15.20;67.10
42199;DHT22;27868;45.184;5.786;2022-09-19T01:52:35;15.20;67.10
42199;DHT22;27868;45.184;5.786;2022-09-19T01:55:41;15.10;67.20
42199;DHT22;27868;45.184;5.786;2022-09-19T02:01:37;15.10;67.70
42199;DHT22;27868;45.184;5.786;2022-09-19T02:04:40;15.10;67.90
42199;DHT22;27868;45.184;5.786;2022-09-19T02:10:42;15.10;67.80
42199;DHT22;27868;45.184;5.786;2022-09-19T02:13:31;15.00;67.90
42199;DHT22;27868;45.184;5.786;2022-09-19T02:16:39;15.10;67.90
42199;DHT22;27868;45.184;5.786;2022-09-19T02:19:42;15.00;67.80
42199;DHT22;27868;45.184;5.786;2022-09-19T02:22:31;15.00;67.90
42199;DHT22;27868;45.184;5.786;2022-09-19T02:25:20;15.00;68.00
42199;DHT22;27868;45.184;5.786;2022-09-19T02:28:10;15.00;67.90
42199;DHT22;27868;45.184;5.786;2022-09-19T02:30:57;14.90;67.80
42199;DHT22;27868;45.184;5.786;2022-09-19T02:33:43;14.90;67.90
42199;DHT22;27868;45.184;5.786;2022-09-19T02:36:45;14.80;67.90
42199;DHT22;27868;45.184;5.786;2022-09-19T02:39:45;14.90;68.10
42199;DHT22;27868;45.184;5.786;2022-09-19T02:48:29;14.80;68.30
42199;DHT22;27868;45.184;5.786;2022-09-19T02:54:29;14.70;68.50
42199;DHT22;27868;45.184;5.786;2022-09-19T02:57:16;14.70;68.50
42199;DHT22;27868;45.184;5.786;2022-09-19T03:00:04;14.70;68.50
42199;DHT22;27868;45.184;5.786;2022-09-19T03:02:57;14.70;68.40
42199;DHT22;27868;45.184;5.786;2022-09-19T03:05:45;14.60;68.50
42199;DHT22;27868;45.184;5.786;2022-09-19T03:08:31;14.60;68.60
42199;DHT22;27868;45.184;5.786;2022-09-19T03:11:20;14.60;68.80
42199;DHT22;27868;45.184;5.786;2022-09-19T03:14:08;14.60;68.90
42199;DHT22;27868;45.184;5.786;2022-09-19T03:16:55;14.60;69.10
42199;DHT22;27868;45.184;5.786;2022-09-19T03:19:40;14.60;69.10
42199;DHT22;27868;45.184;5.786;2022-09-19T03:22:27;14.60;69.10
42199;DHT22;27868;45.184;5.786;2022-09-19T03:25:13;14.60;69.10
42199;DHT22;27868;45.184;5.786;2022-09-19T03:27:58;14.60;69.20
42199;DHT22;27868;45.184;5.786;2022-09-19T03:30:43;14.60;69.20
42199;DHT22;27868;45.184;5.786;2022-09-19T03:33:28;14.50;69.20
42199;DHT22;27868;45.184;5.786;2022-09-19T03:36:13;14.50;69.30
42199;DHT22;27868;45.184;5.786;2022-09-19T03:38:57;14.50;69.20
42199;DHT22;27868;45.184;5.786;2022-09-19T03:41:45;14.50;69.10
42199;DHT22;27868;45.184;5.786;2022-09-19T03:44:30;14.40;68.90
42199;DHT22;27868;45.184;5.786;2022-09-19T03:47:15;14.50;69.00
42199;DHT22;27868;45.184;5.786;2022-09-19T03:50:02;14.40;69.00
42199;DHT22;27868;45.184;5.786;2022-09-19T03:52:47;14.40;68.90
42199;DHT22;27868;45.184;5.786;2022-09-19T03:55:35;14.40;69.00
42199;DHT22;27868;45.184;5.786;2022-09-19T03:58:22;14.40;69.20
42199;DHT22;27868;45.184;5.786;2022-09-19T04:01:09;14.30;69.10
42199;DHT22;27868;45.184;5.786;2022-09-19T04:03:55;14.30;69.10
42199;DHT22;27868;45.184;5.786;2022-09-19T04:06:39;14.30;69.20
42199;DHT22;27868;45.184;5.786;2022-09-19T04:09:25;14.30;69.30
42199;DHT22;27868;45.184;5.786;2022-09-19T04:12:10;14.30;69.30
42199;DHT22;27868;45.184;5.786;2022-09-19T04:14:56;14.20;69.30
42199;DHT22;27868;45.184;5.786;2022-09-19T04:17:41;14.20;70.00
42199;DHT22;27868;45.184;5.786;2022-09-19T04:20:25;14.20;69.20
42199;DHT22;27868;45.184;5.786;2022-09-19T04:23:13;14.20;69.20
42199;DHT22;27868;45.184;5.786;2022-09-19T04:26:00;14.20;69.50
42199;DHT22;27868;45.184;5.786;2022-09-19T04:28:46;14.10;69.50
42199;DHT22;27868;45.184;5.786;2022-09-19T04:31:32;14.10;69.50
42199;DHT22;27868;45.184;5.786;2022-09-19T04:34:23;14.10;69.60
42199;DHT22;27868;45.184;5.786;2022-09-19T04:37:08;14.10;69.70
42199;DHT22;27868;45.184;5.786;2022-09-19T04:39:53;14.00;69.60
42199;DHT22;27868;45.184;5.786;2022-09-19T04:42:37;14.00;69.60
42199;DHT22;27868;45.184;5.786;2022-09-19T04:45:22;14.00;69.70
42199;DHT22;27868;45.184;5.786;2022-09-19T04:48:07;14.00;69.90
42199;DHT22;27868;45.184;5.786;2022-09-19T04:50:52;13.90;69.90
42199;DHT22;27868;45.184;5.786;2022-09-19T04:53:37;14.00;70.00
42199;DHT22;27868;45.184;5.786;2022-09-19T04:56:23;13.90;70.00
42199;DHT22;27868;45.184;5.786;2022-09-19T04:59:10;13.90;70.00
42199;DHT22;27868;45.184;5.786;2022-09-19T05:01:55;13.90;70.10
42199;DHT22;27868;45.184;5.786;2022-09-19T05:04:42;13.90;70.00
42199;DHT22;27868;45.184;5.786;2022-09-19T05:07:29;13.90;70.10
42199;DHT22;27868;45.184;5.786;2022-09-19T05:10:17;13.80;70.10
42199;DHT22;27868;45.184;5.786;2022-09-19T05:13:03;13.80;70.30
42199;DHT22;27868;45.184;5.786;2022-09-19T05:15:47;13.80;70.20
42199;DHT22;27868;45.184;5.786;2022-09-19T05:18:33;13.80;70.10
42199;DHT22;27868;45.184;5.786;2022-09-19T05:21:21;13.80;70.10
42199;DHT22;27868;45.184;5.786;2022-09-19T05:24:06;13.80;70.10
42199;DHT22;27868;45.184;5.786;2022-09-19T05:26:50;13.80;70.20
42199;DHT22;27868;45.184;5.786;2022-09-19T05:29:38;13.70;70.30
42199;DHT22;27868;45.184;5.786;2022-09-19T05:32:25;13.70;70.40
42199;DHT22;27868;45.184;5.786;2022-09-19T05:35:11;13.70;70.40
42199;DHT22;27868;45.184;5.786;2022-09-19T05:37:56;13.70;70.40
42199;DHT22;27868;45.184;5.786;2022-09-19T05:40:41;13.70;70.40
42199;DHT22;27868;45.184;5.786;2022-09-19T05:43:27;13.70;70.40
42199;DHT22;27868;45.184;5.786;2022-09-19T05:46:12;13.70;70.40
42199;DHT22;27868;45.184;5.786;2022-09-19T05:48:57;13.70;70.60
42199;DHT22;27868;45.184;5.786;2022-09-19T05:51:41;13.60;70.60
42199;DHT22;27868;45.184;5.786;2022-09-19T05:54:25;13.60;70.70
42199;DHT22;27868;45.184;5.786;2022-09-19T05:57:10;13.60;70.70
42199;DHT22;27868;45.184;5.786;2022-09-19T05:59:54;13.60;70.80
42199;DHT22;27868;45.184;5.786;2022-09-19T06:02:40;13.60;70.90
42199;DHT22;27868;45.184;5.786;2022-09-19T06:05:25;13.60;70.90
42199;DHT22;27868;45.184;5.786;2022-09-19T06:08:13;13.60;70.90
42199;DHT22;27868;45.184;5.786;2022-09-19T06:11:00;13.60;71.00
42199;DHT22;27868;45.184;5.786;2022-09-19T06:13:45;13.60;71.10
42199;DHT22;27868;45.184;5.786;2022-09-19T06:16:48;13.60;71.10
42199;DHT22;27868;45.184;5.786;2022-09-19T06:19:33;13.60;71.20
42199;DHT22;27868;45.184;5.786;2022-09-19T06:22:17;13.50;71.30
42199;DHT22;27868;45.184;5.786;2022-09-19T06:25:02;13.50;71.20
42199;DHT22;27868;45.184;5.786;2022-09-19T06:27:58;13.50;71.40
42199;DHT22;27868;45.184;5.786;2022-09-19T06:30:43;13.50;71.60
42199;DHT22;27868;45.184;5.786;2022-09-19T06:33:28;13.50;71.80
42199;DHT22;27868;45.184;5.786;2022-09-19T06:36:12;13.50;72.00
42199;DHT22;27868;45.184;5.786;2022-09-19T06:38:57;13.60;72.40
42199;DHT22;27868;45.184;5.786;2022-09-19T06:41:41;13.60;72.40
42199;DHT22;27868;45.184;5.786;2022-09-19T06:44:26;13.60;72.60
42199;DHT22;27868;45.184;5.786;2022-09-19T06:47:10;13.60;72.60
42199;DHT22;27868;45.184;5.786;2022-09-19T06:49:57;13.70;72.70
42199;DHT22;27868;45.184;5.786;2022-09-19T06:52:47;13.70;72.90
42199;DHT22;27868;45.184;5.786;2022-09-19T06:55:31;13.70;73.00
42199;DHT22;27868;45.184;5.786;2022-09-19T06:58:16;13.70;73.00
42199;DHT22;27868;45.184;5.786;2022-09-19T07:01:00;13.80;73.20
42199;DHT22;27868;45.184;5.786;2022-09-19T07:03:45;13.80;73.30
42199;DHT22;27868;45.184;5.786;2022-09-19T07:06:34;13.80;73.40
42199;DHT22;27868;45.184;5.786;2022-09-19T07:09:22;13.90;73.80
42199;DHT22;27868;45.184;5.786;2022-09-19T07:12:09;13.90;73.70
42199;DHT22;27868;45.184;5.786;2022-09-19T07:14:53;13.90;73.80
42199;DHT22;27868;45.184;5.786;2022-09-19T07:17:38;14.00;73.90
42199;DHT22;27868;45.184;5.786;2022-09-19T07:20:23;14.00;74.00
42199;DHT22;27868;45.184;5.786;2022-09-19T07:23:16;14.00;74.00
42199;DHT22;27868;45.184;5.786;2022-09-19T07:26:00;14.00;74.10
42199;DHT22;27868;45.184;5.786;2022-09-19T07:28:46;14.00;73.80
42199;DHT22;27868;45.184;5.786;2022-09-19T07:31:31;14.10;74.00
42199;DHT22;27868;45.184;5.786;2022-09-19T07:34:15;14.10;73.80
42199;DHT22;27868;45.184;5.786;2022-09-19T07:37:00;14.00;74.30
42199;DHT22;27868;45.184;5.786;2022-09-19T07:39:44;14.00;73.60
42199;DHT22;27868;45.184;5.786;2022-09-19T07:42:29;14.10;73.60
42199;DHT22;27868;45.184;5.786;2022-09-19T07:45:14;14.10;73.40
42199;DHT22;27868;45.184;5.786;2022-09-19T07:48:01;14.10;73.30
42199;DHT22;27868;45.184;5.786;2022-09-19T07:50:46;14.10;73.30
42199;DHT22;27868;45.184;5.786;2022-09-19T07:53:34;14.10;73.50
42199;DHT22;27868;45.184;5.786;2022-09-19T07:56:19;14.10;73.20
42199;DHT22;27868;45.184;5.786;2022-09-19T07:59:04;14.10;73.20
42199;DHT22;27868;45.184;5.786;2022-09-19T08:01:49;14.20;73.30
42199;DHT22;27868;45.184;5.786;2022-09-19T08:04:33;14.20;73.40
42199;DHT22;27868;45.184;5.786;2022-09-19T08:07:17;14.20;73.40
42199;DHT22;27868;45.184;5.786;2022-09-19T08:10:02;14.20;73.30
42199;DHT22;27868;45.184;5.786;2022-09-19T08:12:48;14.20;73.20
42199;DHT22;27868;45.184;5.786;2022-09-19T08:15:34;14.20;73.30
42199;DHT22;27868;45.184;5.786;2022-09-19T08:18:20;14.30;73.40
42199;DHT22;27868;45.184;5.786;2022-09-19T08:21:06;14.30;73.00
42199;DHT22;27868;45.184;5.786;2022-09-19T08:23:51;14.30;72.90
42199;DHT22;27868;45.184;5.786;2022-09-19T08:26:36;14.30;73.30
42199;DHT22;27868;45.184;5.786;2022-09-19T08:29:20;14.30;72.80
42199;DHT22;27868;45.184;5.786;2022-09-19T08:32:05;14.40;72.50
42199;DHT22;27868;45.184;5.786;2022-09-19T08:34:50;14.30;72.60
42199;DHT22;27868;45.184;5.786;2022-09-19T08:37:35;14.40;72.60
42199;DHT22;27868;45.184;5.786;2022-09-19T08:40:24;14.40;72.30
42199;DHT22;27868;45.184;5.786;2022-09-19T08:43:13;14.40;72.10
42199;DHT22;27868;45.184;5.786;2022-09-19T08:49:40;14.50;71.70
42199;DHT22;27868;45.184;5.786;2022-09-19T08:52:32;14.50;72.40
42199;DHT22;27868;45.184;5.786;2022-09-19T08:55:23;14.60;71.90
42199;DHT22;27868;45.184;5.786;2022-09-19T08:58:14;14.60;72.10
42199;DHT22;27868;45.184;5.786;2022-09-19T09:01:04;14.60;72.10
42199;DHT22;27868;45.184;5.786;2022-09-19T09:04:04;14.70;72.20
42199;DHT22;27868;45.184;5.786;2022-09-19T09:13:12;14.80;71.70
42199;DHT22;27868;45.184;5.786;2022-09-19T09:21:53;14.90;71.10
42199;DHT22;27868;45.184;5.786;2022-09-19T09:24:47;15.00;71.00
42199;DHT22;27868;45.184;5.786;2022-09-19T09:27:42;15.00;71.20
42199;DHT22;27868;45.184;5.786;2022-09-19T09:30:33;15.10;71.30
42199;DHT22;27868;45.184;5.786;2022-09-19T09:33:26;15.20;71.30
42199;DHT22;27868;45.184;5.786;2022-09-19T09:36:15;15.20;71.10
42199;DHT22;27868;45.184;5.786;2022-09-19T09:39:13;15.30;71.30
42199;DHT22;27868;45.184;5.786;2022-09-19T09:42:02;15.30;71.00
42199;DHT22;27868;45.184;5.786;2022-09-19T09:45:34;15.30;71.10
42199;DHT22;27868;45.184;5.786;2022-09-19T09:48:32;15.30;70.60
42199;DHT22;27868;45.184;5.786;2022-09-19T09:51:54;15.40;70.90
42199;DHT22;27868;45.184;5.786;2022-09-19T10:01:24;15.60;69.40
42199;DHT22;27868;45.184;5.786;2022-09-19T10:04:53;15.60;68.90
42199;DHT22;27868;45.184;5.786;2022-09-19T10:07:53;15.70;68.80
42199;DHT22;27868;45.184;5.786;2022-09-19T10:10:44;15.70;68.60
42199;DHT22;27868;45.184;5.786;2022-09-19T10:13:30;15.70;68.40
42199;DHT22;27868;45.184;5.786;2022-09-19T10:16:17;15.70;68.00
42199;DHT22;27868;45.184;5.786;2022-09-19T10:22:07;15.90;67.70
42199;DHT22;27868;45.184;5.786;2022-09-19T10:24:54;15.90;67.20
42199;DHT22;27868;45.184;5.786;2022-09-19T10:27:41;16.00;67.00
42199;DHT22;27868;45.184;5.786;2022-09-19T10:30:34;16.10;67.00
42199;DHT22;27868;45.184;5.786;2022-09-19T10:33:27;16.10;67.00
42199;DHT22;27868;45.184;5.786;2022-09-19T10:36:19;16.20;67.00
42199;DHT22;27868;45.184;5.786;2022-09-19T10:39:11;16.20;66.80
42199;DHT22;27868;45.184;5.786;2022-09-19T10:41:57;16.20;66.20
42199;DHT22;27868;45.184;5.786;2022-09-19T10:44:50;16.30;66.70
42199;DHT22;27868;45.184;5.786;2022-09-19T10:47:37;16.30;66.60
42199;DHT22;27868;45.184;5.786;2022-09-19T10:50:22;16.40;66.10
42199;DHT22;27868;45.184;5.786;2022-09-19T10:53:18;16.40;64.80
42199;DHT22;27868;45.184;5.786;2022-09-19T10:56:09;16.50;65.50
42199;DHT22;27868;45.184;5.786;2022-09-19T11:02:18;16.70;64.70
42199;DHT22;27868;45.184;5.786;2022-09-19T11:05:06;16.80;65.90
42199;DHT22;27868;45.184;5.786;2022-09-19T11:07:54;16.80;65.20
42199;DHT22;27868;45.184;5.786;2022-09-19T11:10:40;16.80;64.50
42199;DHT22;27868;45.184;5.786;2022-09-19T11:13:25;16.90;63.90
42199;DHT22;27868;45.184;5.786;2022-09-19T11:22:57;17.20;64.40
42199;DHT22;27868;45.184;5.786;2022-09-19T11:32:30;17.60;62.60
42199;DHT22;27868;45.184;5.786;2022-09-19T11:35:32;17.80;62.40
42199;DHT22;27868;45.184;5.786;2022-09-19T11:38:55;17.90;62.40
42199;DHT22;27868;45.184;5.786;2022-09-19T11:42:15;18.10;62.30
42199;DHT22;27868;45.184;5.786;2022-09-19T11:45:11;18.20;62.70
42199;DHT22;27868;45.184;5.786;2022-09-19T11:51:48;18.50;60.90
42199;DHT22;27868;45.184;5.786;2022-09-19T12:00:28;18.90;61.60
42199;DHT22;27868;45.184;5.786;2022-09-19T12:03:25;19.10;58.80
42199;DHT22;27868;45.184;5.786;2022-09-19T12:09:51;19.40;61.50
42199;DHT22;27868;45.184;5.786;2022-09-19T12:12:38;19.60;61.20
42199;DHT22;27868;45.184;5.786;2022-09-19T12:15:26;19.80;60.90
42199;DHT22;27868;45.184;5.786;2022-09-19T12:18:38;20.00;59.90
42199;DHT22;27868;45.184;5.786;2022-09-19T12:21:37;20.20;59.80
42199;DHT22;27868;45.184;5.786;2022-09-19T12:24:29;20.30;59.00
42199;DHT22;27868;45.184;5.786;2022-09-19T12:30:41;20.60;56.90
42199;DHT22;27868;45.184;5.786;2022-09-19T12:33:43;20.80;57.60
42199;DHT22;27868;45.184;5.786;2022-09-19T12:36:33;20.90;56.30
42199;DHT22;27868;45.184;5.786;2022-09-19T12:42:41;21.10;55.80
42199;DHT22;27868;45.184;5.786;2022-09-19T12:45:39;21.30;55.90
42199;DHT22;27868;45.184;5.786;2022-09-19T12:48:52;21.50;55.10
42199;DHT22;27868;45.184;5.786;2022-09-19T12:54:48;21.70;54.80
42199;DHT22;27868;45.184;5.786;2022-09-19T12:58:04;21.80;53.30
42199;DHT22;27868;45.184;5.786;2022-09-19T13:00:53;21.90;52.10
42199;DHT22;27868;45.184;5.786;2022-09-19T13:03:47;21.90;51.30
42199;DHT22;27868;45.184;5.786;2022-09-19T13:06:33;22.00;50.50
42199;DHT22;27868;45.184;5.786;2022-09-19T13:09:59;22.10;51.30
42199;DHT22;27868;45.184;5.786;2022-09-19T13:15:57;22.30;52.30
42199;DHT22;27868;45.184;5.786;2022-09-19T13:18:49;22.30;52.10
42199;DHT22;27868;45.184;5.786;2022-09-19T13:21:53;22.50;52.50
42199;DHT22;27868;45.184;5.786;2022-09-19T13:24:57;22.60;52.40
42199;DHT22;27868;45.184;5.786;2022-09-19T13:27:43;22.60;51.80
42199;DHT22;27868;45.184;5.786;2022-09-19T13:30:46;22.80;52.00
42199;DHT22;27868;45.184;5.786;2022-09-19T13:33:42;22.90;51.70
42199;DHT22;27868;45.184;5.786;2022-09-19T13:42:34;23.10;50.20
42199;DHT22;27868;45.184;5.786;2022-09-19T13:45:38;23.20;50.20
42199;DHT22;27868;45.184;5.786;2022-09-19T13:48:44;23.20;50.70
42199;DHT22;27868;45.184;5.786;2022-09-19T13:52:39;23.30;49.00
42199;DHT22;27868;45.184;5.786;2022-09-19T13:55:30;23.30;50.40
42199;DHT22;27868;45.184;5.786;2022-09-19T13:58:34;23.40;47.70
42199;DHT22;27868;45.184;5.786;2022-09-19T14:01:20;23.40;48.80
42199;DHT22;27868;45.184;5.786;2022-09-19T14:04:16;23.40;48.20
42199;DHT22;27868;45.184;5.786;2022-09-19T14:07:26;23.40;48.10
42199;DHT22;27868;45.184;5.786;2022-09-19T14:13:00;23.50;48.40
42199;DHT22;27868;45.184;5.786;2022-09-19T14:15:48;23.50;49.00
42199;DHT22;27868;45.184;5.786;2022-09-19T14:18:50;23.60;47.30
42199;DHT22;27868;45.184;5.786;2022-09-19T14:24:42;23.60;44.90
42199;DHT22;27868;45.184;5.786;2022-09-19T14:27:54;23.60;45.80
42199;DHT22;27868;45.184;5.786;2022-09-19T14:48:33;23.50;44.30
42199;DHT22;27868;45.184;5.786;2022-09-19T14:54:29;23.50;44.60
42199;DHT22;27868;45.184;5.786;2022-09-19T14:57:17;23.40;44.10
42199;DHT22;27868;45.184;5.786;2022-09-19T15:00:25;23.40;43.70
42199;DHT22;27868;45.184;5.786;2022-09-19T15:03:19;23.30;41.50
42199;DHT22;27868;45.184;5.786;2022-09-19T15:06:25;23.30;42.70
42199;DHT22;27868;45.184;5.786;2022-09-19T15:09:33;23.20;42.60
42199;DHT22;27868;45.184;5.786;2022-09-19T15:12:23;23.10;42.90
42199;DHT22;27868;45.184;5.786;2022-09-19T15:15:14;23.00;42.50
42199;DHT22;27868;45.184;5.786;2022-09-19T15:17:59;23.00;42.40
42199;DHT22;27868;45.184;5.786;2022-09-19T15:20:43;23.00;42.50
42199;DHT22;27868;45.184;5.786;2022-09-19T15:23:30;22.90;42.50
42199;DHT22;27868;45.184;5.786;2022-09-19T15:26:20;22.90;42.90
42199;DHT22;27868;45.184;5.786;2022-09-19T15:29:22;22.80;42.40
42199;DHT22;27868;45.184;5.786;2022-09-19T15:32:27;22.80;42.90
42199;DHT22;27868;45.184;5.786;2022-09-19T15:35:18;22.70;42.90
42199;DHT22;27868;45.184;5.786;2022-09-19T15:38:12;22.70;42.90
42199;DHT22;27868;45.184;5.786;2022-09-19T15:41:04;22.60;42.60
42199;DHT22;27868;45.184;5.786;2022-09-19T15:43:49;22.60;42.50
42199;DHT22;27868;45.184;5.786;2022-09-19T15:46:41;22.50;42.60
42199;DHT22;27868;45.184;5.786;2022-09-19T15:49:29;22.50;43.20
42199;DHT22;27868;45.184;5.786;2022-09-19T15:52:19;22.40;42.90
42199;DHT22;27868;45.184;5.786;2022-09-19T15:55:23;22.30;43.00
42199;DHT22;27868;45.184;5.786;2022-09-19T15:58:19;22.30;43.30
42199;DHT22;27868;45.184;5.786;2022-09-19T16:01:26;22.30;43.20
42199;DHT22;27868;45.184;5.786;2022-09-19T16:04:17;22.30;44.00
42199;DHT22;27868;45.184;5.786;2022-09-19T16:07:03;22.20;44.00
42199;DHT22;27868;45.184;5.786;2022-09-19T16:10:28;22.20;44.20
42199;DHT22;27868;45.184;5.786;2022-09-19T16:13:40;22.10;44.10
42199;DHT22;27868;45.184;5.786;2022-09-19T16:16:33;22.10;44.60
42199;DHT22;27868;45.184;5.786;2022-09-19T16:22:18;22.00;44.60
42199;DHT22;27868;45.184;5.786;2022-09-19T16:25:03;22.00;44.70
42199;DHT22;27868;45.184;5.786;2022-09-19T16:27:49;21.90;45.00
42199;DHT22;27868;45.184;5.786;2022-09-19T16:30:51;21.90;45.90
42199;DHT22;27868;45.184;5.786;2022-09-19T16:33:41;21.80;45.50
42199;DHT22;27868;45.184;5.786;2022-09-19T16:36:27;21.80;45.60
42199;DHT22;27868;45.184;5.786;2022-09-19T16:45:12;21.80;46.30
42199;DHT22;27868;45.184;5.786;2022-09-19T16:47:59;21.70;46.10
42199;DHT22;27868;45.184;5.786;2022-09-19T16:50:44;21.70;46.60
42199;DHT22;27868;45.184;5.786;2022-09-19T16:53:29;21.70;47.10
42199;DHT22;27868;45.184;5.786;2022-09-19T16:56:15;21.60;47.10
42199;DHT22;27868;45.184;5.786;2022-09-19T16:59:04;21.60;47.30
42199;DHT22;27868;45.184;5.786;2022-09-19T17:01:49;21.50;47.40
42199;DHT22;27868;45.184;5.786;2022-09-19T17:04:34;21.50;47.80
42199;DHT22;27868;45.184;5.786;2022-09-19T17:07:19;21.50;48.00
42199;DHT22;27868;45.184;5.786;2022-09-19T17:10:05;21.50;48.00
42199;DHT22;27868;45.184;5.786;2022-09-19T17:12:50;21.40;48.40
42199;DHT22;27868;45.184;5.786;2022-09-19T17:18:26;21.40;49.80
42199;DHT22;27868;45.184;5.786;2022-09-19T17:21:12;21.30;49.60
42199;DHT22;27868;45.184;5.786;2022-09-19T17:23:58;21.90;49.70
42199;DHT22;27868;45.184;5.786;2022-09-19T17:26:43;21.30;50.20
42199;DHT22;27868;45.184;5.786;2022-09-19T17:29:30;21.30;50.20
42199;DHT22;27868;45.184;5.786;2022-09-19T17:32:15;21.20;50.80
42199;DHT22;27868;45.184;5.786;2022-09-19T17:35:00;21.20;50.80
42199;DHT22;27868;45.184;5.786;2022-09-19T17:37:45;21.20;50.90
42199;DHT22;27868;45.184;5.786;2022-09-19T17:40:30;21.10;51.30
42199;DHT22;27868;45.184;5.786;2022-09-19T17:43:21;21.10;51.40
42199;DHT22;27868;45.184;5.786;2022-09-19T17:46:08;21.00;51.90
42199;DHT22;27868;45.184;5.786;2022-09-19T17:48:53;21.00;52.00
42199;DHT22;27868;45.184;5.786;2022-09-19T17:51:38;20.90;52.20
42199;DHT22;27868;45.184;5.786;2022-09-19T17:54:23;20.90;52.00
42199;DHT22;27868;45.184;5.786;2022-09-19T17:57:08;20.80;53.00
42199;DHT22;27868;45.184;5.786;2022-09-19T17:59:53;20.80;52.70
42199;DHT22;27868;45.184;5.786;2022-09-19T18:02:39;20.80;52.90
42199;DHT22;27868;45.184;5.786;2022-09-19T18:06:03;20.70;53.10
42199;DHT22;27868;45.184;5.786;2022-09-19T18:08:48;20.70;53.00
42199;DHT22;27868;45.184;5.786;2022-09-19T18:11:33;20.60;52.90
42199;DHT22;27868;45.184;5.786;2022-09-19T18:14:19;20.50;53.10
42199;DHT22;27868;45.184;5.786;2022-09-19T18:17:05;20.50;53.10
42199;DHT22;27868;45.184;5.786;2022-09-19T18:19:51;20.40;53.40
42199;DHT22;27868;45.184;5.786;2022-09-19T18:22:35;20.40;53.40
42199;DHT22;27868;45.184;5.786;2022-09-19T18:25:20;20.30;53.30
42199;DHT22;27868;45.184;5.786;2022-09-19T18:28:11;20.30;53.60
42199;DHT22;27868;45.184;5.786;2022-09-19T18:30:57;20.30;53.90
42199;DHT22;27868;45.184;5.786;2022-09-19T18:33:43;20.20;53.90
42199;DHT22;27868;45.184;5.786;2022-09-19T18:36:28;20.20;54.10
42199;DHT22;27868;45.184;5.786;2022-09-19T18:39:13;20.10;54.40
42199;DHT22;27868;45.184;5.786;2022-09-19T18:41:59;20.10;54.50
42199;DHT22;27868;45.184;5.786;2022-09-19T18:44:44;20.00;54.50
42199;DHT22;27868;45.184;5.786;2022-09-19T18:47:32;20.00;54.60
42199;DHT22;27868;45.184;5.786;2022-09-19T18:50:18;19.90;54.80
42199;DHT22;27868;45.184;5.786;2022-09-19T18:53:03;19.80;54.90
42199;DHT22;27868;45.184;5.786;2022-09-19T18:55:55;19.80;54.90
42199;DHT22;27868;45.184;5.786;2022-09-19T18:58:40;19.80;55.10
42199;DHT22;27868;45.184;5.786;2022-09-19T19:01:26;19.70;55.30
42199;DHT22;27868;45.184;5.786;2022-09-19T19:04:11;19.70;55.10
42199;DHT22;27868;45.184;5.786;2022-09-19T19:06:56;19.70;55.20
42199;DHT22;27868;45.184;5.786;2022-09-19T19:09:40;19.60;55.20
42199;DHT22;27868;45.184;5.786;2022-09-19T19:12:25;19.60;55.40
42199;DHT22;27868;45.184;5.786;2022-09-19T19:15:11;19.60;55.40
42199;DHT22;27868;45.184;5.786;2022-09-19T19:18:01;19.50;55.30
42199;DHT22;27868;45.184;5.786;2022-09-19T19:20:49;19.50;55.50
42199;DHT22;27868;45.184;5.786;2022-09-19T19:23:35;19.40;55.50
42199;DHT22;27868;45.184;5.786;2022-09-19T19:26:20;19.40;55.60
42199;DHT22;27868;45.184;5.786;2022-09-19T19:29:05;19.30;55.60
42199;DHT22;27868;45.184;5.786;2022-09-19T19:31:50;19.30;55.60
42199;DHT22;27868;45.184;5.786;2022-09-19T19:34:35;19.30;55.80
42199;DHT22;27868;45.184;5.786;2022-09-19T19:37:20;19.20;55.90
42199;DHT22;27868;45.184;5.786;2022-09-19T19:40:06;19.20;55.90
42199;DHT22;27868;45.184;5.786;2022-09-19T19:42:51;19.20;55.90
42199;DHT22;27868;45.184;5.786;2022-09-19T19:45:36;19.10;56.00
42199;DHT22;27868;45.184;5.786;2022-09-19T19:48:21;19.10;56.00
42199;DHT22;27868;45.184;5.786;2022-09-19T19:51:13;19.00;56.00
42199;DHT22;27868;45.184;5.786;2022-09-19T19:54:00;19.00;56.20
42199;DHT22;27868;45.184;5.786;2022-09-19T19:56:45;19.00;56.20
42199;DHT22;27868;45.184;5.786;2022-09-19T19:59:30;18.90;56.10
42199;DHT22;27868;45.184;5.786;2022-09-19T20:02:14;18.90;56.40
42199;DHT22;27868;45.184;5.786;2022-09-19T20:04:59;18.90;56.40
42199;DHT22;27868;45.184;5.786;2022-09-19T20:07:44;18.80;56.40
42199;DHT22;27868;45.184;5.786;2022-09-19T20:10:31;19.40;57.10
42199;DHT22;27868;45.184;5.786;2022-09-19T20:13:15;18.70;56.60
42199;DHT22;27868;45.184;5.786;2022-09-19T20:16:06;18.70;56.50